Time;durP1;ratioP1;P1;durP2;ratioP2;P2;SDS_P1;SDS_P2;PMS_P1;PMS_P2;Temp;Humidity;BMP_temperature;BMP_pressure;BME280_temperature;BME280_humidity;BME280_pressure;Samples;Min_cycle;Max_cycle;Signal;HPM_P1;HPM_P2
2023/10/10 00:01:41;;;;;;;15.40;10.35;;;;;;;11.02;100.00;101785.69;5010822;28;20594;-44
2023/10/10 00:04:06;;;;;;;15.10;10.23;;;;;;;10.97;100.00;101775.97;5009704;28;20255;-44
2023/10/10 00:06:38;;;;;;;12.48;9.05;;;;;;;11.04;100.00;101777.56;4994476;28;20627;-44
2023/10/10 00:09:05;;;;;;;11.57;9.18;;;;;;;11.04;100.00;101777.56;5010625;28;20165;-44
2023/10/10 00:11:31;;;;;;;13.13;8.80;;;;;;;11.10;100.00;101786.34;5009167;28;20192;-43
2023/10/10 00:14:06;;;;;;;14.93;10.52;;;;;;;11.07;100.00;101783.75;5011642;28;20283;-44
2023/10/10 00:16:38;;;;;;;17.67;10.60;;;;;;;11.07;100.00;101786.44;5011206;28;20266;-43
2023/10/10 00:21:53;;;;;;;17.35;11.13;;;;;;;11.02;100.00;101768.69;5008378;28;20195;-43
2023/10/10 00:24:30;;;;;;;15.75;10.50;;;;;;;10.97;100.00;101767.94;5012205;28;20208;-42
2023/10/10 00:26:58;;;;;;;13.40;9.32;;;;;;;11.02;100.00;101764.22;5011506;28;20587;-47
2023/10/10 00:29:26;;;;;;;19.60;11.35;;;;;;;11.00;100.00;101766.06;4994122;28;20180;-45
2023/10/10 00:31:55;;;;;;;16.23;11.50;;;;;;;10.96;100.00;101769.75;4987668;28;20520;-46
2023/10/10 00:34:23;;;;;;;19.08;11.30;;;;;;;10.94;100.00;101776.94;5006640;28;20257;-44
2023/10/10 00:36:50;;;;;;;16.02;11.85;;;;;;;10.96;100.00;101759.00;4990585;28;20182;-44
2023/10/10 00:41:50;;;;;;;16.67;11.15;;;;;;;11.01;100.00;101754.41;5011838;28;20165;-42
2023/10/10 00:44:17;;;;;;;13.27;9.88;;;;;;;11.06;100.00;101755.19;4992614;28;20618;-46
2023/10/10 00:46:47;;;;;;;14.68;10.45;;;;;;;11.10;100.00;101756.84;5012160;28;20263;-45
2023/10/10 00:49:13;;;;;;;16.20;10.93;;;;;;;11.06;100.00;101756.97;5008938;28;20227;-45
2023/10/10 00:51:40;;;;;;;17.60;10.23;;;;;;;11.06;100.00;101765.00;5009959;28;20197;-46
2023/10/10 00:54:26;;;;;;;13.93;9.55;;;;;;;11.06;100.00;101763.25;5012207;28;20207;-44
2023/10/10 00:56:56;;;;;;;14.00;9.77;;;;;;;11.10;100.00;101761.34;5005322;28;20712;-44
2023/10/10 00:59:44;;;;;;;14.05;9.27;;;;;;;11.07;100.00;101751.56;5009812;28;20183;-44
2023/10/10 01:02:10;;;;;;;12.30;8.65;;;;;;;11.04;100.00;101748.97;5007812;28;20200;-43
2023/10/10 01:04:48;;;;;;;17.58;10.73;;;;;;;10.97;100.00;101752.72;4991418;28;20480;-44
2023/10/10 01:07:21;;;;;;;14.18;9.75;;;;;;;10.96;100.00;101761.69;5008507;28;20188;-45
2023/10/10 01:12:22;;;;;;;16.45;11.07;;;;;;;10.84;100.00;101754.81;5008271;28;20193;-44
2023/10/10 01:14:54;;;;;;;16.08;10.88;;;;;;;10.81;100.00;101752.22;5011197;28;20177;-44
2023/10/10 01:17:30;;;;;;;14.30;10.13;;;;;;;10.86;100.00;101758.34;4989653;28;20229;-43
2023/10/10 01:20:03;;;;;;;19.15;10.93;;;;;;;10.87;100.00;101753.88;5002108;28;20235;-45
2023/10/10 01:22:39;;;;;;;16.25;11.02;;;;;;;10.77;100.00;101755.03;4991671;28;20223;-45
2023/10/10 01:25:31;;;;;;;13.90;9.50;;;;;;;10.87;100.00;101751.22;5010077;28;20694;-45
2023/10/10 01:27:54;;;;;;;12.40;9.07;;;;;;;10.91;100.00;101743.03;5005708;28;20277;-46
2023/10/10 01:30:43;;;;;;;18.05;11.00;;;;;;;10.90;100.00;101753.78;4989044;28;20726;-47
2023/10/10 01:33:06;;;;;;;18.45;12.60;;;;;;;10.92;100.00;101757.31;5007677;28;20247;-44
2023/10/10 01:35:34;;;;;;;15.55;11.23;;;;;;;10.97;100.00;101760.75;4987392;28;20201;-45
2023/10/10 01:37:59;;;;;;;25.23;14.07;;;;;;;10.94;100.00;101763.53;5012133;28;20207;-44
2023/10/10 01:40:28;;;;;;;24.02;14.82;;;;;;;10.94;100.00;101768.91;5005666;28;20180;-46
2023/10/10 01:42:54;;;;;;;23.30;14.50;;;;;;;10.97;100.00;101771.50;4990306;28;20193;-45
2023/10/10 01:45:20;;;;;;;31.02;16.85;;;;;;;10.94;100.00;101766.22;5005925;28;20260;-44
2023/10/10 01:47:57;;;;;;;30.90;16.65;;;;;;;10.97;100.00;101774.16;5007129;28;20552;-43
2023/10/10 01:50:26;;;;;;;29.48;15.00;;;;;;;10.97;100.00;101779.53;5008938;28;20247;-43
2023/10/10 01:52:55;;;;;;;29.40;16.60;;;;;;;11.01;100.00;101777.66;4989951;28;20210;-45
2023/10/10 01:55:24;;;;;;;28.10;16.08;;;;;;;11.04;100.00;101770.44;5007305;28;20671;-43
2023/10/10 01:57:50;;;;;;;31.17;16.17;;;;;;;11.06;100.00;101775.75;5004507;28;20173;-45
2023/10/10 02:02:50;;;;;;;29.13;16.67;;;;;;;11.04;100.00;101770.44;5004487;28;20665;-43
2023/10/10 02:05:32;;;;;;;39.17;19.75;;;;;;;10.99;100.00;101772.34;5005955;28;20693;-46
2023/10/10 02:07:58;;;;;;;34.30;17.52;;;;;;;11.03;100.00;101762.44;4992199;28;20268;-44
2023/10/10 02:10:30;;;;;;;40.13;18.27;;;;;;;11.01;100.00;101764.25;4993223;28;20707;-43
2023/10/10 02:12:59;;;;;;;37.28;17.20;;;;;;;10.99;100.00;101764.28;4994099;28;20205;-46
2023/10/10 02:15:32;;;;;;;31.48;16.85;;;;;;;11.05;100.00;101774.88;4985358;28;20193;-43
2023/10/10 02:18:04;;;;;;;29.73;15.52;;;;;;;11.11;100.00;101773.84;4996722;28;20246;-45
2023/10/10 02:23:08;;;;;;;39.35;18.70;;;;;;;11.01;100.00;101780.34;5004076;28;20440;-44
2023/10/10 02:28:09;;;;;;;38.97;18.88;;;;;;;11.04;100.00;101782.94;5008713;28;20657;-43
2023/10/10 02:30:34;;;;;;;32.30;16.52;;;;;;;11.07;100.00;101772.16;4985354;28;20192;-45
2023/10/10 02:38:22;;;;;;;36.20;17.48;;;;;;;10.99;100.00;101758.94;5008196;28;20180;-45
2023/10/10 02:40:53;;;;;;;37.30;16.98;;;;;;;10.97;100.00;101759.88;5003678;28;20275;-43
2023/10/10 02:43:33;;;;;;;37.75;17.25;;;;;;;10.99;100.00;101764.28;5003422;28;20227;-43
2023/10/10 02:45:58;;;;;;;34.33;16.42;;;;;;;10.94;100.00;101760.84;5002566;28;20188;-42
2023/10/10 02:48:26;;;;;;;45.20;17.23;;;;;;;10.91;100.00;101774.31;4990602;28;20180;-42
2023/10/10 02:50:53;;;;;;;34.13;15.27;;;;;;;10.98;100.00;101773.28;4990553;28;20196;-44
2023/10/10 02:53:19;;;;;;;36.80;16.58;;;;;;;10.91;100.00;101768.94;5005529;28;20230;-45
2023/10/10 02:55:51;;;;;;;41.25;16.02;;;;;;;10.88;100.00;101767.22;4993261;28;20181;-42
2023/10/10 02:58:21;;;;;;;34.40;14.73;;;;;;;10.89;100.00;101754.72;4990047;28;20204;-43
2023/10/10 03:00:52;;;;;;;30.27;15.20;;;;;;;10.89;100.00;101765.47;5010941;28;20180;-43
2023/10/10 03:03:18;;;;;;;36.58;15.85;;;;;;;10.89;100.00;101770.81;5005306;28;20212;-44
2023/10/10 03:05:54;;;;;;;40.35;15.50;;;;;;;10.88;100.00;101767.22;4992991;28;20189;-45
2023/10/10 03:08:34;;;;;;;38.58;16.65;;;;;;;10.92;100.00;101771.59;4993590;28;20219;-45
2023/10/10 03:11:01;;;;;;;35.88;17.17;;;;;;;10.86;100.00;101776.25;4992820;28;20175;-45
2023/10/10 03:13:35;;;;;;;37.88;15.93;;;;;;;10.87;100.00;101765.47;5007683;28;20295;-45
2023/10/10 03:21:35;;;;;;;37.85;17.42;;;;;;;10.90;100.00;101759.16;5007096;28;20197;-44
2023/10/10 03:24:15;;;;;;;39.05;18.45;;;;;;;10.89;100.00;101778.88;4990337;28;20219;-44
2023/10/10 03:29:26;;;;;;;42.28;18.55;;;;;;;10.87;100.00;101773.53;5007980;28;20775;-45
2023/10/10 03:34:45;;;;;;;35.28;15.35;;;;;;;10.87;100.00;101788.75;5001510;28;20260;-45
2023/10/10 03:40:20;;;;;;;31.48;14.70;;;;;;;10.90;100.00;101783.28;4997132;28;20180;-44
2023/10/10 05:24:01;;;;;;;41.83;15.35;;;;;;;10.54;100.00;101783.25;5001535;28;20578;-47
2023/10/10 05:26:30;;;;;;;38.20;16.05;;;;;;;10.54;100.00;101787.72;5009774;28;20172;-47
2023/10/10 05:28:57;;;;;;;39.25;15.48;;;;;;;10.53;100.00;101786.84;5009938;28;20615;-48
2023/10/10 05:31:23;;;;;;;39.30;14.93;;;;;;;10.43;100.00;101794.22;5002308;28;20669;-44
2023/10/10 05:33:50;;;;;;;38.15;14.80;;;;;;;10.49;100.00;101788.72;5000432;28;20296;-46
2023/10/10 05:36:18;;;;;;;39.47;15.10;;;;;;;10.46;100.00;101788.75;5002540;28;20679;-45
2023/10/10 05:38:46;;;;;;;36.80;15.13;;;;;;;10.46;100.00;101787.91;5008175;28;20183;-46
2023/10/10 05:41:12;;;;;;;41.13;15.07;;;;;;;10.50;100.00;101785.09;5010065;28;20192;-45
2023/10/10 05:43:39;;;;;;;38.55;15.38;;;;;;;10.51;100.00;101800.25;5003373;28;20216;-44
2023/10/10 05:46:05;;;;;;;34.97;15.35;;;;;;;10.52;100.00;101788.63;5008474;28;20188;-46
2023/10/10 05:48:31;;;;;;;39.47;15.75;;;;;;;10.52;100.00;101796.69;5011212;28;20258;-45
2023/10/10 05:51:00;;;;;;;39.28;15.57;;;;;;;10.55;100.00;101782.31;5001155;28;20552;-46
2023/10/10 05:53:26;;;;;;;46.15;16.58;;;;;;;10.47;100.00;101785.19;5010618;28;20219;-46
2023/10/10 05:55:58;;;;;;;36.38;14.55;;;;;;;10.56;100.00;101770.69;5002289;28;20708;-46
2023/10/10 05:58:25;;;;;;;47.38;16.52;;;;;;;10.58;100.00;101767.97;4994699;28;20193;-45
2023/10/10 06:00:53;;;;;;;44.33;16.15;;;;;;;10.57;100.00;101768.91;5001747;28;20199;-45
2023/10/10 06:03:19;;;;;;;39.15;14.52;;;;;;;10.42;100.00;101771.00;5002944;28;20606;-45
2023/10/10 06:05:45;;;;;;;40.55;15.32;;;;;;;10.48;100.00;101767.31;5008707;28;20192;-44
2023/10/10 06:08:11;;;;;;;35.20;14.25;;;;;;;10.53;100.00;101768.06;5001825;28;20180;-46
2023/10/10 06:10:37;;;;;;;34.58;14.90;;;;;;;10.46;100.00;101769.13;5007537;28;20183;-45
2023/10/10 06:13:06;;;;;;;31.90;13.45;;;;;;;10.58;100.00;101778.69;5009326;28;20213;-47
2023/10/10 06:15:36;;;;;;;41.45;14.23;;;;;;;10.59;100.00;101773.28;5005415;28;20263;-46
2023/10/10 06:18:18;;;;;;;39.92;15.05;;;;;;;10.61;100.00;101779.50;5008406;28;20180;-45
2023/10/10 06:20:45;;;;;;;33.75;13.48;;;;;;;10.66;100.00;101784.75;5004406;28;20195;-46
2023/10/10 06:23:18;;;;;;;34.97;14.05;;;;;;;10.66;100.00;101785.63;5004084;28;20702;-47
2023/10/10 06:25:43;;;;;;;39.08;15.05;;;;;;;10.65;100.00;101772.28;4991968;28;20676;-45
2023/10/10 06:28:29;;;;;;;33.10;14.05;;;;;;;10.67;100.00;101786.50;5006540;28;20181;-45
2023/10/10 06:30:55;;;;;;;36.05;14.02;;;;;;;10.58;100.00;101779.56;5000085;28;20179;-45
2023/10/10 06:33:27;;;;;;;39.00;14.48;;;;;;;10.59;100.00;101770.63;5005537;28;20213;-47
2023/10/10 06:41:39;;;;;;;39.88;14.52;;;;;;;10.61;100.00;101771.47;5005996;28;20207;-47
2023/10/10 06:44:05;;;;;;;33.90;13.57;;;;;;;10.66;100.00;101782.06;5012127;28;20219;-44
2023/10/10 06:46:37;;;;;;;37.92;13.98;;;;;;;10.64;100.00;101783.91;4980431;28;20768;-45
2023/10/10 06:49:06;;;;;;;38.72;14.35;;;;;;;10.60;100.00;101776.84;5007030;28;20181;-46
2023/10/10 06:51:41;;;;;;;34.55;13.15;;;;;;;10.66;100.00;101798.16;5012200;28;20208;-46
2023/10/10 06:54:19;;;;;;;33.05;12.75;;;;;;;10.71;100.00;101793.56;5002949;28;20200;-47
2023/10/10 06:56:53;;;;;;;31.75;13.18;;;;;;;10.78;100.00;101789.84;5009766;28;20680;-45
2023/10/10 06:59:26;;;;;;;31.60;12.40;;;;;;;10.78;100.00;101783.56;5011304;28;20251;-43
2023/10/10 07:01:53;;;;;;;28.02;12.38;;;;;;;10.77;100.00;101795.22;5001264;28;20265;-45
2023/10/10 07:04:19;;;;;;;28.90;12.43;;;;;;;10.79;100.00;101780.88;5002923;28;20197;-46
2023/10/10 07:06:47;;;;;;;30.63;13.40;;;;;;;10.88;100.00;101782.44;5012628;28;20517;-44
2023/10/10 07:09:29;;;;;;;31.33;12.85;;;;;;;10.80;100.00;101781.75;5009102;28;20319;-45
2023/10/10 07:12:11;;;;;;;23.00;11.65;;;;;;;10.82;100.00;101782.59;5012791;28;20188;-46
2023/10/10 07:14:43;;;;;;;27.63;12.32;;;;;;;10.81;100.00;101787.06;5013299;28;20197;-45
2023/10/10 07:17:14;;;;;;;30.27;12.05;;;;;;;10.84;100.00;101795.03;5008314;28;20180;-47
2023/10/10 07:22:33;;;;;;;33.83;14.25;;;;;;;10.98;100.00;101786.69;4975879;28;20199;-47
2023/10/10 07:25:10;;;;;;;30.23;13.75;;;;;;;11.07;100.00;101781.06;5014780;28;20271;-45
2023/10/10 07:27:41;;;;;;;33.83;13.40;;;;;;;11.09;100.00;101781.91;5010552;28;20603;-46
2023/10/10 07:30:17;;;;;;;26.52;11.82;;;;;;;11.09;100.00;101778.38;5012543;28;20192;-44
2023/10/10 07:32:44;;;;;;;27.58;11.57;;;;;;;11.07;100.00;101769.47;5010880;28;20222;-45
2023/10/10 07:35:15;;;;;;;27.30;12.02;;;;;;;11.08;100.00;101777.47;5013894;28;20189;-44
2023/10/10 07:37:44;;;;;;;27.20;11.73;;;;;;;11.10;100.00;101769.38;5013004;28;20184;-44
2023/10/10 07:42:58;;;;;;;32.75;11.18;;;;;;;11.12;100.00;101765.75;5007153;28;20169;-46
2023/10/10 07:45:33;;;;;;;24.80;10.80;;;;;;;11.07;100.00;101767.66;4998457;28;20706;-45
2023/10/10 07:50:46;;;;;;;22.20;9.88;;;;;;;11.20;100.00;101751.28;5010788;28;20200;-46
2023/10/10 07:53:13;;;;;;;20.67;10.50;;;;;;;11.22;100.00;101750.31;4990074;28;20345;-47
2023/10/10 07:56:13;;;;;;;21.42;9.45;;;;;;;11.34;100.00;101765.19;5011229;28;20595;-47
2023/10/10 07:58:44;;;;;;;22.33;10.23;;;;;;;11.34;100.00;101754.44;5004740;28;20212;-46
2023/10/10 08:01:11;;;;;;;25.75;9.95;;;;;;;11.43;100.00;101756.88;4983446;28;20196;-45
2023/10/10 08:03:37;;;;;;;22.05;8.90;;;;;;;11.42;100.00;101759.63;5005260;28;20243;-44
2023/10/10 08:06:08;;;;;;;23.88;9.75;;;;;;;11.38;100.00;101760.63;5006233;28;20185;-45
2023/10/10 08:08:35;;;;;;;22.85;9.75;;;;;;;11.38;100.00;101760.63;5002021;28;20205;-45
2023/10/10 08:11:06;;;;;;;20.83;10.07;;;;;;;11.42;100.00;101756.94;5010905;28;20203;-46
2023/10/10 08:13:32;;;;;;;20.15;9.20;;;;;;;11.41;100.00;101748.00;5008288;28;20216;-47
2023/10/10 08:16:02;;;;;;;19.83;8.43;;;;;;;11.44;100.00;101750.63;5004461;28;20200;-48
2023/10/10 08:21:14;;;;;;;19.77;9.65;;;;;;;11.52;100.00;101736.97;5013404;28;20542;-46
2023/10/10 08:23:45;;;;;;;20.05;9.77;;;;;;;11.54;100.00;101736.03;5013189;28;20588;-46
2023/10/10 08:26:26;;;;;;;20.67;9.60;;;;;;;11.56;100.00;101741.34;5013689;28;20706;-46
2023/10/10 08:28:52;;;;;;;17.98;9.25;;;;;;;11.55;100.00;101737.78;5008949;28;20189;-50
2023/10/10 08:31:18;;;;;;;21.50;9.90;;;;;;;11.57;100.00;101735.06;4987773;28;20185;-49
2023/10/10 08:33:46;;;;;;;21.27;9.15;;;;;;;11.58;100.00;101723.38;5000896;28;20271;-49
2023/10/10 08:36:25;;;;;;;20.27;8.93;;;;;;;11.59;100.00;101725.16;5006289;28;20184;-50
2023/10/10 08:38:50;;;;;;;20.02;9.15;;;;;;;11.59;100.00;101732.31;5004991;28;20185;-49
2023/10/10 08:41:38;;;;;;;19.45;9.27;;;;;;;11.54;100.00;101717.25;5002025;28;20184;-49
2023/10/10 08:44:08;;;;;;;19.95;8.13;;;;;;;11.59;100.00;101729.63;5002632;28;20203;-49
2023/10/10 08:46:49;;;;;;;18.77;8.10;;;;;;;11.63;100.00;101725.94;5003577;28;20282;-49
2023/10/10 08:49:15;;;;;;;17.48;8.02;;;;;;;11.68;100.00;101721.34;4984514;28;20182;-48
2023/10/10 08:51:42;;;;;;;14.73;7.30;;;;;;;11.67;100.00;101719.56;5004036;28;20204;-49
2023/10/10 08:54:12;;;;;;;15.93;7.60;;;;;;;11.70;100.00;101714.13;5004155;28;20820;-48
2023/10/10 08:56:41;;;;;;;17.67;8.60;;;;;;;11.72;100.00;101714.97;5000358;28;20177;-48
2023/10/10 08:59:10;;;;;;;15.93;7.45;;;;;;;11.80;100.00;101710.22;5001648;28;20189;-48
2023/10/10 09:01:36;;;;;;;13.68;7.57;;;;;;;11.95;100.00;101698.19;5000481;28;20551;-49
2023/10/10 09:04:03;;;;;;;15.00;7.57;;;;;;;12.07;100.00;101702.31;5002351;28;20199;-49
2023/10/10 09:07:00;;;;;;;13.52;7.20;;;;;;;12.11;100.00;101701.28;5001308;28;20193;-48
2023/10/10 09:09:39;;;;;;;15.90;7.38;;;;;;;12.15;100.00;101703.81;4998887;28;20193;-49
2023/10/10 09:12:12;;;;;;;14.05;7.13;;;;;;;12.15;100.00;101692.19;5000718;28;20571;-48
2023/10/10 09:14:42;;;;;;;13.23;6.45;;;;;;;12.21;100.00;101683.97;5001440;28;20574;-49
2023/10/10 09:17:09;;;;;;;14.90;7.10;;;;;;;12.22;100.00;101687.53;5003697;28;20180;-48
2023/10/10 09:19:46;;;;;;;15.98;7.45;;;;;;;12.19;100.00;101693.00;5003459;28;20204;-49
2023/10/10 09:22:25;;;;;;;12.57;7.13;;;;;;;12.22;100.00;101684.84;5001063;28;20267;-48
2023/10/10 09:24:55;;;;;;;14.30;7.05;;;;;;;12.30;100.00;101680.09;5001108;28;20411;-48
2023/10/10 09:27:27;;;;;;;16.17;6.95;;;;;;;12.36;100.00;101669.16;5000772;28;20192;-49
2023/10/10 09:29:56;;;;;;;13.48;6.93;;;;;;;12.49;100.00;101669.66;5001380;28;20195;-49
2023/10/10 09:32:42;;;;;;;13.52;7.32;;;;;;;12.44;100.00;101674.28;5003578;28;20208;-49
2023/10/10 09:35:08;;;;;;;12.05;7.82;;;;;;;12.48;100.00;101675.94;5003501;28;20181;-50
2023/10/10 09:37:38;;;;;;;18.40;9.07;;;;;;;12.51;100.00;101667.78;5002962;28;20219;-48
2023/10/10 09:40:15;;;;;;;16.70;8.95;;;;;;;12.50;100.00;101674.09;5002079;28;20181;-48
2023/10/10 09:43:03;;;;;;;15.38;7.95;;;;;;;12.52;100.00;101662.34;5003041;28;20215;-47
2023/10/10 09:48:28;;;;;;;21.30;10.18;;;;;;;12.70;100.00;101665.34;4999634;28;20180;-49
2023/10/10 09:51:30;;;;;;;17.95;9.05;;;;;;;12.70;100.00;101663.56;5002327;28;20235;-48
2023/10/10 09:54:15;;;;;;;18.67;9.15;;;;;;;12.71;100.00;101659.94;5001354;28;20240;-49
2023/10/10 09:56:50;;;;;;;21.75;10.30;;;;;;;12.73;100.00;101665.28;5000347;28;20675;-49
2023/10/10 09:59:19;;;;;;;22.77;9.80;;;;;;;12.67;100.00;101657.41;4990456;28;20505;-47
2023/10/10 10:01:47;;;;;;;23.67;9.48;;;;;;;12.69;100.00;101666.28;4999467;28;20204;-47
2023/10/10 10:04:24;;;;;;;23.15;10.73;;;;;;;12.74;100.00;101662.50;5000808;28;20212;-48
2023/10/10 10:07:15;;;;;;;19.88;9.50;;;;;;;12.88;100.00;101663.84;5001453;28;20207;-47
2023/10/10 10:10:09;;;;;;;22.65;10.40;;;;;;;12.94;100.00;101659.16;5000302;28;20191;-48
2023/10/10 10:13:19;;;;;;;24.05;10.82;;;;;;;12.88;100.00;101662.06;4997300;28;20210;-49
2023/10/10 10:16:15;;;;;;;23.90;11.38;;;;;;;12.90;100.00;101652.13;4997602;28;20632;-50
2023/10/10 10:18:45;;;;;;;28.63;12.23;;;;;;;13.00;100.00;101647.28;5000487;28;20173;-47
2023/10/10 10:21:18;;;;;;;25.40;10.93;;;;;;;12.98;100.00;101644.63;4999971;28;20617;-48
2023/10/10 10:23:46;;;;;;;24.70;11.55;;;;;;;13.15;100.00;101643.19;4998472;28;20201;-48
2023/10/10 10:26:34;;;;;;;24.80;12.15;;;;;;;13.20;100.00;101635.81;5002711;28;20185;-49
2023/10/10 10:29:29;;;;;;;24.25;12.52;;;;;;;13.26;100.00;101648.19;4984908;28;20192;-49
2023/10/10 10:31:59;;;;;;;26.45;12.10;;;;;;;13.28;100.00;101640.94;4991522;28;20184;-48
2023/10/10 10:34:35;;;;;;;30.23;13.52;;;;;;;13.39;100.00;101618.09;5001231;28;20204;-48
2023/10/10 10:37:06;;;;;;;30.45;14.00;;;;;;;13.34;100.00;101620.06;5001022;28;20177;-50
2023/10/10 10:39:37;;;;;;;28.65;13.43;;;;;;;13.51;100.00;101624.84;5001476;28;20666;-48
2023/10/10 10:42:11;;;;;;;29.42;13.98;;;;;;;13.46;100.00;101621.41;4997620;28;20200;-48
2023/10/10 10:44:46;;;;;;;33.05;13.98;;;;;;;13.44;100.00;101615.22;5002476;28;20697;-45
2023/10/10 10:47:35;;;;;;;29.30;13.85;;;;;;;13.44;100.00;101609.84;5006107;28;20184;-47
2023/10/10 10:50:28;;;;;;;30.92;13.35;;;;;;;13.51;100.00;101603.31;5000363;28;20202;-49
2023/10/10 10:52:58;;;;;;;33.30;14.30;;;;;;;13.61;100.00;101603.81;5000563;23;20272;-44
2023/10/10 10:55:28;;;;;;;27.20;12.75;;;;;;;13.60;100.00;101599.38;4987587;28;20212;-44
2023/10/10 10:58:06;;;;;;;27.55;14.52;;;;;;;13.62;100.00;101602.00;4995106;28;20174;-45
2023/10/10 11:01:00;;;;;;;30.73;15.10;;;;;;;13.69;100.00;101596.31;4992748;28;20598;-45
2023/10/10 11:03:38;;;;;;;28.67;14.75;;;;;;;13.76;100.00;101591.56;4983270;28;20671;-45
2023/10/10 11:06:09;;;;;;;30.35;15.07;;;;;;;13.80;100.00;101594.09;4991559;28;20291;-46
2023/10/10 11:14:00;;;;;;;28.10;15.15;;;;;;;13.91;100.00;101585.56;4990120;28;20210;-47
2023/10/10 11:16:39;;;;;;;32.90;15.63;;;;;;;13.93;100.00;101589.09;4990176;28;20272;-45
2023/10/10 11:22:05;;;;;;;25.85;14.88;;;;;;;14.13;100.00;101571.25;4973719;28;20745;-46
2023/10/10 11:24:34;;;;;;;24.60;13.95;;;;;;;14.24;100.00;101565.41;4998846;28;20651;-47
2023/10/10 11:29:28;;;;;;;23.70;14.65;;;;;;;14.46;100.00;101558.16;4991771;28;20283;-44
2023/10/10 11:32:07;;;;;;;21.65;13.68;;;;;;;14.50;100.00;101553.50;4996941;28;20265;-47
2023/10/10 11:34:44;;;;;;;24.77;14.00;;;;;;;14.51;100.00;101534.56;4996854;28;20622;-46
2023/10/10 11:37:23;;;;;;;24.27;12.32;;;;;;;14.56;100.00;101535.28;4994422;28;20267;-45
2023/10/10 11:40:19;;;;;;;22.70;12.52;;;;;;;14.58;100.00;101525.31;4996705;28;20239;-45
2023/10/10 11:42:47;;;;;;;19.35;12.23;;;;;;;14.63;100.00;101515.19;4998149;28;20197;-44
2023/10/10 11:45:19;;;;;;;18.25;11.23;;;;;;;14.66;100.00;101510.59;4992741;28;20194;-45
2023/10/10 11:47:48;;;;;;;21.48;11.38;;;;;;;14.65;100.00;101507.03;4997984;28;20641;-44
2023/10/10 11:50:17;;;;;;;16.55;10.15;;;;;;;14.69;100.00;101508.63;4993731;28;20249;-44
2023/10/10 11:53:12;;;;;;;20.05;10.70;;;;;;;14.87;100.00;101487.16;4997687;28;20228;-45
2023/10/10 11:55:40;;;;;;;13.07;9.40;;;;;;;14.92;100.00;101483.31;4989856;28;20279;-44
2023/10/10 11:58:16;;;;;;;18.70;8.60;;;;;;;15.05;100.00;101478.22;4994438;28;20365;-45
2023/10/10 12:00:42;;;;;;;15.05;8.43;;;;;;;15.16;100.00;101472.34;4991070;28;20193;-45
2023/10/10 12:03:34;;;;;;;11.48;7.78;;;;;;;15.23;100.00;101479.19;4991438;28;20193;-45
2023/10/10 12:06:00;;;;;;;12.48;7.60;;;;;;;15.32;100.00;101456.28;4994156;28;20235;-46
2023/10/10 12:08:26;;;;;;;13.32;6.45;;;;;;;15.36;100.00;101447.94;4995071;28;20168;-46
2023/10/10 12:10:56;;;;;;;10.93;6.75;;;;;;;15.47;100.00;101447.44;4992106;28;20188;-45
2023/10/10 12:16:07;;;;;;;11.43;6.03;;;;;;;15.55;100.00;101433.56;4995544;28;20180;-44
2023/10/10 12:18:34;;;;;;;8.43;5.55;;;;;;;15.56;100.00;101430.75;4991047;28;20201;-45
2023/10/10 12:21:01;;;;;;;9.00;5.82;;;;;;;15.55;100.00;101429.03;4993279;28;20185;-46
2023/10/10 12:23:30;;;;;;;12.65;5.30;;;;;;;15.60;100.00;101421.56;4995679;28;20193;-45
2023/10/10 12:25:55;;;;;;;10.45;5.10;;;;;;;15.62;100.00;101413.41;4996005;28;20238;-45
2023/10/10 12:28:21;;;;;;;9.80;4.97;;;;;;;15.60;100.00;101401.78;4992026;28;20221;-46
2023/10/10 12:30:46;;;;;;;6.65;4.85;;;;;;;15.59;100.00;101408.13;4964203;28;20182;-44
2023/10/10 12:33:19;;;;;;;10.65;4.40;;;;;;;15.60;100.00;101401.78;4991505;28;20267;-47
2023/10/10 12:35:48;;;;;;;5.43;3.67;;;;;;;15.64;100.00;101408.78;4993595;28;20181;-46
2023/10/10 12:38:15;;;;;;;8.23;3.75;;;;;;;15.70;100.00;101407.59;4990672;28;20193;-47
2023/10/10 12:40:43;;;;;;;9.00;3.95;;;;;;;15.81;100.00;101408.84;4997730;28;20235;-44
2023/10/10 12:43:11;;;;;;;9.15;4.00;;;;;;;15.78;100.00;101400.00;4990255;28;20188;-44
2023/10/10 12:45:37;;;;;;;7.15;4.38;;;;;;;15.79;100.00;101386.44;4990396;28;20558;-45
2023/10/10 12:48:04;;;;;;;8.77;4.05;;;;;;;15.78;100.00;101389.19;4990258;28;20173;-46
2023/10/10 12:50:32;;;;;;;6.32;3.53;;;;;;;15.82;100.00;101386.25;4994710;28;20659;-44
2023/10/10 12:53:07;;;;;;;4.18;3.15;;;;;;;15.71;100.00;101379.63;4989287;28;20206;-45
2023/10/10 12:55:35;;;;;;;5.38;3.30;;;;;;;15.71;100.00;101383.25;4988139;28;20594;-45
2023/10/10 12:58:10;;;;;;;8.07;3.08;;;;;;;15.69;100.00;101377.00;4993382;28;20194;-46
2023/10/10 13:00:36;;;;;;;7.90;3.75;;;;;;;15.64;100.00;101374.53;4996592;28;20181;-46
2023/10/10 13:03:06;;;;;;;5.82;3.78;;;;;;;15.57;100.00;101381.22;4987753;28;20264;-47
2023/10/10 13:05:32;;;;;;;4.70;2.88;;;;;;;15.59;100.00;101368.50;4990548;28;20173;-46
2023/10/10 13:07:59;;;;;;;5.20;2.88;;;;;;;15.55;100.00;101360.66;4991513;28;20201;-45
2023/10/10 13:10:30;;;;;;;4.40;2.85;;;;;;;15.55;100.00;101356.09;4995261;28;20192;-46
2023/10/10 13:12:56;;;;;;;9.27;3.38;;;;;;;15.51;100.00;101348.25;4990662;28;20209;-46
2023/10/10 13:15:29;;;;;;;3.53;3.13;;;;;;;15.53;100.00;101346.34;4989349;28;20605;-42
2023/10/10 13:18:19;;;;;;;5.20;2.85;;;;;;;15.52;100.00;101341.88;4988732;28;20188;-46
2023/10/10 13:20:50;;;;;;;5.07;3.00;;;;;;;15.49;100.00;101328.53;4986678;28;20553;-45
2023/10/10 13:23:18;;;;;;;3.63;2.60;;;;;;;15.48;100.00;101316.88;4993944;28;20201;-46
2023/10/10 13:25:44;;;;;;;5.95;2.60;;;;;;;15.45;100.00;101309.78;4991905;28;20256;-45
2023/10/10 13:28:17;;;;;;;6.25;2.83;;;;;;;15.45;100.00;101311.59;4986122;28;20650;-46
2023/10/10 13:30:46;;;;;;;6.07;3.00;;;;;;;15.45;100.00;101300.81;4993074;28;20668;-47
2023/10/10 13:33:16;;;;;;;2.15;2.00;;;;;;;15.47;100.00;101303.44;4991456;28;20209;-46
2023/10/10 13:35:42;;;;;;;5.32;2.40;;;;;;;15.47;100.00;101312.41;4995637;28;20715;-45
2023/10/10 13:38:09;;;;;;;4.05;2.40;;;;;;;15.44;100.00;101310.75;4989072;28;20215;-47
2023/10/10 13:40:43;;;;;;;4.55;2.53;;;;;;;15.44;100.00;101301.78;4995561;28;20199;-46
2023/10/10 13:43:10;;;;;;;8.40;2.47;;;;;;;15.41;100.00;101315.41;4992447;28;20790;-46
2023/10/10 13:45:38;;;;;;;4.43;2.40;;;;;;;15.44;100.00;101313.44;4988813;28;20253;-44
2023/10/10 13:48:08;;;;;;;4.50;2.60;;;;;;;15.44;100.00;101307.19;4986756;28;20181;-45
2023/10/10 13:50:44;;;;;;;3.03;2.65;;;;;;;15.41;100.00;101305.50;4991306;28;20189;-47
2023/10/10 13:53:13;;;;;;;3.20;2.60;;;;;;;15.43;100.00;101305.41;4993181;28;20327;-45
2023/10/10 13:55:45;;;;;;;5.05;2.65;;;;;;;15.43;100.00;101300.00;4992012;28;20177;-45
2023/10/10 13:58:13;;;;;;;3.20;2.67;;;;;;;15.41;100.00;101294.72;4988810;28;20185;-45
2023/10/10 14:00:52;;;;;;;5.03;2.75;;;;;;;15.40;100.00;101294.78;4982404;28;20200;-46
2023/10/10 14:03:28;;;;;;;5.35;2.40;;;;;;;15.36;100.00;101294.03;4989014;28;20193;-44
2023/10/10 14:06:10;;;;;;;4.57;2.63;;;;;;;15.37;100.00;101289.50;4992124;28;20263;-45
2023/10/10 14:08:35;;;;;;;3.88;2.80;;;;;;;15.32;100.00;101286.19;4986542;28;20181;-46
2023/10/10 14:11:01;;;;;;;5.45;3.45;;;;;;;15.32;100.00;101286.19;4988201;28;20198;-44
2023/10/10 14:13:28;;;;;;;5.03;2.65;;;;;;;15.32;100.00;101283.47;4993527;28;20206;-43
2023/10/10 14:16:05;;;;;;;4.40;3.10;;;;;;;15.35;100.00;101283.31;4995132;28;20278;-47
2023/10/10 14:18:32;;;;;;;3.38;2.90;;;;;;;15.39;100.00;101275.00;4990997;28;20204;-45